createdAt,value
2019-05-05T00:00:24.616Z,16.82
2019-05-05T00:01:46.980Z,13.45
2019-05-05T00:02:58.502Z,12.70
2019-05-05T00:04:12.539Z,13.05
2019-05-05T00:05:32.671Z,15.83
2019-05-05T00:06:37.051Z,12.58
2019-05-05T00:07:41.403Z,17.57
2019-05-05T00:08:45.837Z,14.28
2019-05-05T00:09:50.284Z,14.68
2019-05-05T00:11:10.331Z,11.93
2019-05-05T00:12:31.843Z,15.08
2019-05-05T00:13:55.175Z,13.68
2019-05-05T00:15:34.483Z,14.90
2019-05-05T00:17:10.173Z,15.28
2019-05-05T00:18:15.199Z,17.98
2019-05-05T00:19:32.218Z,16.32
2019-05-05T00:20:25.778Z,23.65
2019-05-05T00:21:30.331Z,20.00
2019-05-05T00:22:35.088Z,15.25
2019-05-05T00:23:39.395Z,17.20
2019-05-05T00:24:44.380Z,15.43
2019-05-05T00:25:48.999Z,18.02
2019-05-05T00:26:55.226Z,22.05
2019-05-05T00:27:59.451Z,18.45
2019-05-05T00:29:04.453Z,17.15
2019-05-05T00:30:09.070Z,20.23
2019-05-05T00:31:15.069Z,14.58
2019-05-05T00:32:19.720Z,15.18
2019-05-05T00:33:24.870Z,19.77
2019-05-05T00:34:29.500Z,13.35
2019-05-05T00:35:34.510Z,13.13
2019-05-05T00:36:38.958Z,13.80
2019-05-05T00:37:45.048Z,15.08
2019-05-05T00:38:49.797Z,15.60
2019-05-05T00:39:54.386Z,15.10
2019-05-05T00:40:59.029Z,19.40
2019-05-05T00:42:04.800Z,18.82
2019-05-05T00:43:09.347Z,18.52
2019-05-05T00:44:15.310Z,16.05
2019-05-05T00:45:20.011Z,16.12
2019-05-05T00:46:44.590Z,18.15
2019-05-05T00:48:01.491Z,16.12
2019-05-05T00:49:07.092Z,15.45
2019-05-05T00:50:14.560Z,19.32
2019-05-05T00:51:19.097Z,19.42
2019-05-05T00:52:24.554Z,16.50
2019-05-05T00:53:29.127Z,15.38
2019-05-05T00:54:34.697Z,15.32
2019-05-05T00:55:41.716Z,16.97
2019-05-05T00:56:46.038Z,19.92
2019-05-05T00:57:50.399Z,20.97
2019-05-05T00:58:58.865Z,16.57
2019-05-05T01:00:05.066Z,15.03
2019-05-05T01:01:34.557Z,14.50
2019-05-05T01:02:44.844Z,19.00
2019-05-05T01:03:49.397Z,20.88
2019-05-05T01:05:10.557Z,15.90
2019-05-05T01:06:20.880Z,14.70
2019-05-05T01:07:25.182Z,17.02
2019-05-05T01:08:29.679Z,15.80
2019-05-05T01:09:35.842Z,15.43
2019-05-05T01:10:40.258Z,18.35
2019-05-05T01:11:44.695Z,20.32
2019-05-05T01:12:49.134Z,16.05
2019-05-05T01:13:54.690Z,18.52
2019-05-05T01:14:59.332Z,21.93
2019-05-05T01:16:04.786Z,24.25
2019-05-05T01:17:09.593Z,18.30
2019-05-05T01:18:15.253Z,18.27
2019-05-05T01:19:19.931Z,18.30
2019-05-05T01:20:25.014Z,18.62
2019-05-05T01:21:29.454Z,14.35
2019-05-05T01:22:34.235Z,16.52
2019-05-05T01:23:38.803Z,25.17
2019-05-05T01:24:43.133Z,25.05
2019-05-05T01:25:48.770Z,17.80
2019-05-05T01:26:55.001Z,26.85
2019-05-05T01:27:59.463Z,19.37
2019-05-05T01:29:05.343Z,17.52
2019-05-05T01:30:15.527Z,26.90
2019-05-05T01:31:20.277Z,17.95
2019-05-05T01:32:28.883Z,23.02
2019-05-05T01:33:39.074Z,16.67
2019-05-05T01:34:45.014Z,24.40
2019-05-05T01:35:49.523Z,21.97
2019-05-05T01:37:00.080Z,22.25
2019-05-05T01:38:14.224Z,24.95
2019-05-05T01:39:36.596Z,24.60
2019-05-05T01:40:47.794Z,24.60
2019-05-05T01:41:55.614Z,23.07
2019-05-05T01:42:59.984Z,23.73
2019-05-05T01:44:04.966Z,20.17
2019-05-05T01:45:09.499Z,22.10
2019-05-05T01:46:14.430Z,19.17
2019-05-05T01:47:19.035Z,23.22
2019-05-05T01:48:24.804Z,18.67
2019-05-05T01:49:30.740Z,20.30
2019-05-05T01:50:35.248Z,21.27
2019-05-05T01:51:39.734Z,18.57
2019-05-05T01:52:45.106Z,23.30
2019-05-05T01:53:49.595Z,18.00
2019-05-05T01:54:54.815Z,19.77
2019-05-05T01:56:00.212Z,20.15
2019-05-05T01:57:05.552Z,22.25
2019-05-05T01:58:10.302Z,19.87
2019-05-05T01:59:14.783Z,20.62
2019-05-05T02:00:19.341Z,22.00
2019-05-05T02:01:24.644Z,20.62
2019-05-05T02:02:29.319Z,25.70
2019-05-05T02:03:34.988Z,20.68
2019-05-05T02:04:39.667Z,25.27
2019-05-05T02:05:45.280Z,18.40
2019-05-05T02:06:50.363Z,23.67
2019-05-05T02:07:55.305Z,16.95
2019-05-05T02:09:00.016Z,17.45
2019-05-05T02:10:06.048Z,20.40
2019-05-05T02:11:11.548Z,22.60
2019-05-05T02:12:16.098Z,22.45
2019-05-05T02:13:20.579Z,18.85
2019-05-05T02:14:25.363Z,18.10
2019-05-05T02:15:29.751Z,22.40
2019-05-05T02:16:34.741Z,18.42
2019-05-05T02:17:39.454Z,24.63
2019-05-05T02:18:45.067Z,24.55
2019-05-05T02:19:49.708Z,24.05
2019-05-05T02:21:05.806Z,23.77
2019-05-05T02:22:10.135Z,26.17
2019-05-05T02:23:16.240Z,25.35
2019-05-05T02:24:20.784Z,25.48
2019-05-05T02:25:25.114Z,23.70
2019-05-05T02:26:29.463Z,25.97
2019-05-05T02:27:34.403Z,28.10
2019-05-05T02:28:58.262Z,25.55
2019-05-05T02:30:21.847Z,23.25
2019-05-05T02:31:45.548Z,26.55
2019-05-05T02:32:55.440Z,27.73
2019-05-05T02:34:00.010Z,28.75
2019-05-05T02:35:06.826Z,29.20
2019-05-05T02:36:11.214Z,30.05
2019-05-05T02:37:16.153Z,27.95
2019-05-05T02:38:20.811Z,32.08
2019-05-05T02:39:25.287Z,30.68
2019-05-05T02:40:29.963Z,27.13
2019-05-05T02:41:34.868Z,28.60
2019-05-05T02:42:41.163Z,26.37
2019-05-05T02:43:45.945Z,28.80
2019-05-05T02:44:54.275Z,26.42
2019-05-05T02:46:26.265Z,29.32
2019-05-05T02:47:56.474Z,26.55
2019-05-05T02:49:05.445Z,27.90
2019-05-05T02:50:09.464Z,29.90
2019-05-05T02:51:15.404Z,25.55
2019-05-05T02:52:21.058Z,27.22
2019-05-05T02:53:33.981Z,26.52
2019-05-05T02:54:39.279Z,21.70
2019-05-05T02:55:44.245Z,23.32
2019-05-05T02:56:50.453Z,22.32
2019-05-05T02:57:56.535Z,24.47
2019-05-05T02:59:04.303Z,23.83
2019-05-05T03:00:24.067Z,21.82
2019-05-05T03:01:36.905Z,23.18
2019-05-05T03:02:43.303Z,24.37
2019-05-05T03:03:48.668Z,22.15
2019-05-05T03:04:53.682Z,19.65
2019-05-05T03:05:59.098Z,26.25
2019-05-05T03:07:05.388Z,21.70
2019-05-05T03:08:09.947Z,21.82
2019-05-05T03:09:15.122Z,24.00
2019-05-05T03:10:19.618Z,26.23
2019-05-05T03:11:25.494Z,25.72
2019-05-05T03:12:34.569Z,24.43
2019-05-05T03:13:41.137Z,20.57
2019-05-05T03:14:46.639Z,25.48
2019-05-05T03:16:16.942Z,21.35
2019-05-05T03:17:23.473Z,21.12
2019-05-05T03:18:28.537Z,19.00
2019-05-05T03:19:33.928Z,20.00
2019-05-05T03:20:38.595Z,23.20
2019-05-05T03:21:44.173Z,17.30
2019-05-05T03:22:48.781Z,18.87
2019-05-05T03:23:54.775Z,20.65
2019-05-05T03:24:59.661Z,17.87
2019-05-05T03:26:04.457Z,18.77
2019-05-05T03:27:09.927Z,21.12
2019-05-05T03:28:14.331Z,19.25
2019-05-05T03:29:20.489Z,21.25
2019-05-05T03:30:26.042Z,17.70
2019-05-05T03:31:30.946Z,16.07
2019-05-05T03:32:36.151Z,20.85
2019-05-05T03:33:41.458Z,17.02
2019-05-05T03:34:46.022Z,20.20
2019-05-05T03:35:50.774Z,23.12
2019-05-05T03:36:55.511Z,19.55
2019-05-05T03:38:00.267Z,19.70
2019-05-05T03:39:06.374Z,18.60
2019-05-05T03:40:18.512Z,16.52
2019-05-05T03:41:34.346Z,20.95
2019-05-05T03:42:53.583Z,20.20
2019-05-05T03:44:04.979Z,19.70
2019-05-05T03:45:34.057Z,22.62
2019-05-05T03:46:38.404Z,21.87
2019-05-05T03:47:44.106Z,23.07
2019-05-05T03:48:49.042Z,19.40
2019-05-05T03:49:54.094Z,21.57
2019-05-05T03:50:58.599Z,16.52
2019-05-05T03:52:04.839Z,21.30
2019-05-05T03:53:09.932Z,20.43
2019-05-05T03:54:15.288Z,15.58
2019-05-05T03:55:20.242Z,17.40
2019-05-05T03:56:25.018Z,17.87
2019-05-05T03:57:29.997Z,18.10
2019-05-05T03:58:34.519Z,15.43
2019-05-05T03:59:41.646Z,13.03
2019-05-05T04:01:49.058Z,16.05
2019-05-05T04:03:00.525Z,13.28
2019-05-05T04:04:24.999Z,11.45
2019-05-05T04:05:34.017Z,13.28
2019-05-05T04:06:38.631Z,14.73
2019-05-05T04:07:44.042Z,11.33
2019-05-05T04:08:49.418Z,13.88
2019-05-05T04:09:54.358Z,12.20
2019-05-05T04:10:59.075Z,16.07
2019-05-05T04:12:04.435Z,12.28
2019-05-05T04:13:09.402Z,15.00
2019-05-05T04:14:14.642Z,17.32
2019-05-05T04:15:19.009Z,13.72
2019-05-05T04:16:29.094Z,13.75
2019-05-05T04:17:41.317Z,13.32
2019-05-05T04:18:49.386Z,15.30
2019-05-05T04:19:54.458Z,10.65
2019-05-05T04:20:58.797Z,11.85
2019-05-05T04:22:04.223Z,12.80
2019-05-05T04:23:08.814Z,11.50
2019-05-05T04:24:14.579Z,14.03
2019-05-05T04:25:19.223Z,13.93
2019-05-05T04:26:23.564Z,23.32
2019-05-05T04:27:27.890Z,13.65
2019-05-05T04:28:34.451Z,13.30
2019-05-05T04:29:38.320Z,12.47
2019-05-05T04:30:44.450Z,12.23
2019-05-05T04:31:48.753Z,11.50
2019-05-05T04:32:54.560Z,12.20
2019-05-05T04:33:59.241Z,8.53
2019-05-05T04:35:03.749Z,10.45
2019-05-05T04:36:08.090Z,10.35
2019-05-05T04:37:14.675Z,12.03
2019-05-05T04:38:19.256Z,12.40
2019-05-05T04:39:23.723Z,11.53
2019-05-05T04:40:28.355Z,9.30
2019-05-05T04:41:33.790Z,7.70
2019-05-05T04:42:38.442Z,8.93
2019-05-05T04:43:44.198Z,10.65
2019-05-05T04:44:48.790Z,8.98
2019-05-05T04:45:54.118Z,12.18
2019-05-05T04:47:03.887Z,11.35
2019-05-05T04:48:13.769Z,9.55
2019-05-05T04:49:37.617Z,10.25
2019-05-05T04:50:59.962Z,9.93
2019-05-05T04:52:08.030Z,9.58
2019-05-05T04:53:16.068Z,8.98
2019-05-05T04:54:24.477Z,10.48
2019-05-05T04:55:28.874Z,7.87
2019-05-05T04:56:34.332Z,9.40
2019-05-05T04:57:38.824Z,9.80
2019-05-05T04:58:44.021Z,10.03
2019-05-05T04:59:49.974Z,9.18
2019-05-05T05:00:54.763Z,7.47
2019-05-05T05:02:03.991Z,8.30
2019-05-05T05:03:34.673Z,8.78
2019-05-05T05:04:48.069Z,11.33
2019-05-05T05:05:58.035Z,7.37
2019-05-05T05:07:04.666Z,8.90
2019-05-05T05:08:09.258Z,10.53
2019-05-05T05:09:14.671Z,10.03
2019-05-05T05:10:24.157Z,9.78
2019-05-05T05:11:28.557Z,11.73
2019-05-05T05:12:34.154Z,11.73
2019-05-05T05:13:38.786Z,10.10
2019-05-05T05:14:44.087Z,9.03
2019-05-05T05:15:48.598Z,9.15
2019-05-05T05:16:54.191Z,10.70
2019-05-05T05:18:09.202Z,9.18
2019-05-05T05:19:13.897Z,7.97
2019-05-05T05:20:18.446Z,8.95
2019-05-05T05:21:23.721Z,11.43
2019-05-05T05:22:28.160Z,9.18
2019-05-05T05:23:34.070Z,9.23
2019-05-05T05:24:38.655Z,9.45
2019-05-05T05:25:43.867Z,9.05
2019-05-05T05:26:48.519Z,8.13
2019-05-05T05:27:53.607Z,11.70
2019-05-05T05:28:58.232Z,8.45
2019-05-05T05:30:04.515Z,10.48
2019-05-05T05:31:08.748Z,9.75
2019-05-05T05:32:13.055Z,9.58
2019-05-05T05:33:17.403Z,9.93
2019-05-05T05:34:23.767Z,8.90
2019-05-05T05:35:27.718Z,8.40
2019-05-05T05:36:33.829Z,9.20
2019-05-05T05:37:38.043Z,9.65
2019-05-05T05:38:43.836Z,14.18
2019-05-05T05:40:07.118Z,7.83
2019-05-05T05:41:13.817Z,14.93
2019-05-05T05:42:18.146Z,9.33
2019-05-05T05:43:29.559Z,8.68
2019-05-05T05:44:50.646Z,8.08
2019-05-05T05:46:05.241Z,9.20
2019-05-05T05:47:33.749Z,8.93
2019-05-05T05:49:07.004Z,8.10
2019-05-05T05:50:18.594Z,10.85
2019-05-05T05:51:23.795Z,10.45
2019-05-05T05:52:28.420Z,7.60
2019-05-05T05:53:34.738Z,11.20
2019-05-05T05:54:38.831Z,9.48
2019-05-05T05:55:44.811Z,7.50
2019-05-05T05:56:49.379Z,11.25
2019-05-05T05:57:54.264Z,9.63
2019-05-05T05:58:58.712Z,8.18
2019-05-05T06:00:04.109Z,7.90
2019-05-05T06:01:08.559Z,9.45
2019-05-05T06:02:15.513Z,8.90
2019-05-05T06:03:18.959Z,8.98
2019-05-05T06:04:23.809Z,8.65
2019-05-05T06:05:28.134Z,8.25
2019-05-05T06:06:34.503Z,8.18
2019-05-05T06:07:38.453Z,9.03
2019-05-05T06:08:43.970Z,7.30
2019-05-05T06:09:48.586Z,8.00
2019-05-05T06:10:54.658Z,9.78
2019-05-05T06:11:59.301Z,10.95
2019-05-05T06:13:04.232Z,6.40
2019-05-05T06:14:08.763Z,7.10
2019-05-05T06:15:14.200Z,11.35
2019-05-05T06:16:18.743Z,7.20
2019-05-05T06:17:23.871Z,15.15
2019-05-05T06:18:28.345Z,6.92
2019-05-05T06:19:35.700Z,8.08
2019-05-05T06:20:40.067Z,10.18
2019-05-05T06:21:44.854Z,12.43
2019-05-05T06:22:49.243Z,11.93
2019-05-05T06:23:53.870Z,11.18
2019-05-05T06:24:58.302Z,8.43
2019-05-05T06:26:06.701Z,7.70
2019-05-05T06:27:08.618Z,12.13
2019-05-05T06:28:14.457Z,8.10
2019-05-05T06:29:19.130Z,6.17
2019-05-05T06:30:24.340Z,9.50
2019-05-05T06:31:28.911Z,9.35
2019-05-05T06:32:34.253Z,7.37
2019-05-05T06:33:38.755Z,10.48
2019-05-05T06:34:44.299Z,8.45
2019-05-05T06:35:48.939Z,7.10
2019-05-05T06:36:53.740Z,8.13
2019-05-05T06:37:58.323Z,6.90
2019-05-05T06:39:04.587Z,8.55
2019-05-05T06:40:11.458Z,7.35
2019-05-05T06:41:28.111Z,8.30
2019-05-05T06:42:54.271Z,6.50
2019-05-05T06:44:06.604Z,6.80
2019-05-05T06:45:18.926Z,7.63
2019-05-05T06:46:26.207Z,5.40
2019-05-05T06:47:38.027Z,5.63
2019-05-05T06:48:43.890Z,5.55
2019-05-05T06:49:48.302Z,7.70
2019-05-05T06:50:54.423Z,7.07
2019-05-05T06:51:58.626Z,5.10
2019-05-05T06:53:04.294Z,7.70
2019-05-05T06:54:08.763Z,8.13
2019-05-05T06:55:14.071Z,9.43
2019-05-05T06:56:18.557Z,6.93
2019-05-05T06:57:24.030Z,6.67
2019-05-05T06:58:28.719Z,6.47
2019-05-05T06:59:34.991Z,7.23
2019-05-05T07:00:39.123Z,6.30
2019-05-05T07:01:44.269Z,6.97
2019-05-05T07:02:48.798Z,7.27
2019-05-05T07:03:54.145Z,4.70
2019-05-05T07:04:58.556Z,6.57
2019-05-05T07:06:04.267Z,6.47
2019-05-05T07:07:09.106Z,6.07
2019-05-05T07:08:13.849Z,6.70
2019-05-05T07:09:18.500Z,4.20
2019-05-05T07:10:24.445Z,7.50
2019-05-05T07:11:28.968Z,5.17
2019-05-05T07:12:34.715Z,6.13
2019-05-05T07:13:40.062Z,5.47
2019-05-05T07:14:44.705Z,7.53
2019-05-05T07:15:49.063Z,4.60
2019-05-05T07:16:54.456Z,6.30
2019-05-05T07:17:58.964Z,6.13
2019-05-05T07:19:04.397Z,5.53
2019-05-05T07:20:09.323Z,4.57
2019-05-05T07:21:14.353Z,6.80
2019-05-05T07:22:18.903Z,6.43
2019-05-05T07:23:24.639Z,6.17
2019-05-05T07:24:29.195Z,7.83
2019-05-05T07:25:42.110Z,7.50
2019-05-05T07:26:39.727Z,6.80
2019-05-05T07:27:44.260Z,5.87
2019-05-05T07:28:48.875Z,7.50
2019-05-05T07:29:54.146Z,6.87
2019-05-05T07:30:58.749Z,7.30
2019-05-05T07:32:03.943Z,4.57
2019-05-05T07:33:08.651Z,6.57
2019-05-05T07:34:13.908Z,4.00
2019-05-05T07:35:52.425Z,5.27
2019-05-05T07:36:49.287Z,3.80
2019-05-05T07:37:53.877Z,7.47
2019-05-05T07:38:58.383Z,6.13
2019-05-05T07:40:04.196Z,4.77
2019-05-05T07:41:08.826Z,4.00
2019-05-05T07:42:13.738Z,3.80
2019-05-05T07:43:18.264Z,7.10
2019-05-05T07:44:29.038Z,6.90
2019-05-05T07:45:28.699Z,3.47
2019-05-05T07:46:34.613Z,4.63
2019-05-05T07:47:39.345Z,3.67
2019-05-05T07:48:44.310Z,6.33
2019-05-05T07:49:48.807Z,3.43
2019-05-05T07:51:01.945Z,4.17
2019-05-05T07:51:59.261Z,7.97
2019-05-05T07:53:12.312Z,5.60
2019-05-05T07:54:09.712Z,5.23
2019-05-05T07:55:14.401Z,6.47
2019-05-05T07:56:19.051Z,5.80
2019-05-05T07:57:23.844Z,3.90
2019-05-05T07:58:28.285Z,5.33
2019-05-05T07:59:34.045Z,4.87
2019-05-05T08:00:38.727Z,4.90
2019-05-05T08:01:45.809Z,7.30
2019-05-05T08:02:49.110Z,3.13
2019-05-05T08:03:53.967Z,3.70
2019-05-05T08:04:58.491Z,6.50
2019-05-05T08:06:03.989Z,8.63
2019-05-05T08:07:08.625Z,4.43
2019-05-05T08:08:13.976Z,5.90
2019-05-05T08:09:24.940Z,5.47
2019-05-05T08:10:29.421Z,3.70
2019-05-05T08:11:34.398Z,4.93
2019-05-05T08:12:38.895Z,2.97
2019-05-05T08:13:44.316Z,3.90
2019-05-05T08:14:49.005Z,4.47
2019-05-05T08:15:59.858Z,3.50
2019-05-05T08:17:14.584Z,4.73
2019-05-05T08:18:30.171Z,6.00
2019-05-05T08:19:38.552Z,4.53
2019-05-05T08:20:45.697Z,8.50
2019-05-05T08:21:50.120Z,3.30
2019-05-05T08:22:54.507Z,5.67
2019-05-05T08:24:14.014Z,7.53
2019-05-05T08:25:36.137Z,4.87
2019-05-05T08:26:44.498Z,6.03
2019-05-05T08:28:00.144Z,6.10
2019-05-05T08:29:24.008Z,10.57
2019-05-05T08:30:37.518Z,6.23
2019-05-05T08:31:55.483Z,5.73
2019-05-05T08:32:59.968Z,8.40
2019-05-05T08:34:04.371Z,11.33
2019-05-05T08:35:08.794Z,6.30
2019-05-05T08:36:14.674Z,7.47
2019-05-05T08:37:19.203Z,7.70
2019-05-05T08:38:26.696Z,5.10
2019-05-05T08:39:31.040Z,7.73
2019-05-05T08:40:35.503Z,6.97
2019-05-05T08:41:39.899Z,5.83
2019-05-05T08:42:44.600Z,6.27
2019-05-05T08:43:49.102Z,8.80
2019-05-05T08:44:53.909Z,9.97
2019-05-05T08:45:58.460Z,7.90
2019-05-05T08:47:04.510Z,8.90
2019-05-05T08:48:09.032Z,10.00
2019-05-05T08:49:13.769Z,6.07
2019-05-05T08:50:18.355Z,7.50
2019-05-05T08:51:24.630Z,7.80
2019-05-05T08:52:28.871Z,9.23
2019-05-05T08:53:44.103Z,9.03
2019-05-05T08:54:39.434Z,9.13
2019-05-05T08:55:44.384Z,11.20
2019-05-05T08:56:48.936Z,9.70
2019-05-05T08:57:54.003Z,7.57
2019-05-05T08:58:58.563Z,8.47
2019-05-05T09:00:04.862Z,11.27
2019-05-05T09:01:09.126Z,10.80
2019-05-05T09:02:14.926Z,11.20
2019-05-05T09:03:19.540Z,11.70
2019-05-05T09:04:24.708Z,15.77
2019-05-05T09:05:29.194Z,12.63
2019-05-05T09:06:34.465Z,11.13
2019-05-05T09:07:39.623Z,14.87
2019-05-05T09:08:44.295Z,16.67
2019-05-05T09:09:48.802Z,13.67
2019-05-05T09:10:55.208Z,14.47
2019-05-05T09:11:59.243Z,18.70
2019-05-05T09:13:03.955Z,12.30
2019-05-05T09:14:08.388Z,16.20
2019-05-05T09:15:13.690Z,12.70
2019-05-05T09:16:18.371Z,13.20
2019-05-05T09:17:24.356Z,14.07
2019-05-05T09:18:28.801Z,12.90
2019-05-05T09:19:34.475Z,9.63
2019-05-05T09:20:38.950Z,9.23
2019-05-05T09:21:44.736Z,10.27
2019-05-05T09:22:49.326Z,16.20
2019-05-05T09:23:59.862Z,11.73
2019-05-05T09:25:08.451Z,12.70
2019-05-05T09:26:31.492Z,11.10
2019-05-05T09:27:44.283Z,10.83
2019-05-05T09:28:55.324Z,10.53
2019-05-05T09:29:59.667Z,10.20
2019-05-05T09:31:04.285Z,8.47
2019-05-05T09:32:08.723Z,11.37
2019-05-05T09:33:14.244Z,10.43
2019-05-05T09:34:19.194Z,8.37
2019-05-05T09:35:24.050Z,11.37
2019-05-05T09:36:28.601Z,9.97
2019-05-05T09:37:33.971Z,12.57
2019-05-05T09:38:38.863Z,8.33
2019-05-05T09:39:43.809Z,10.83
2019-05-05T09:40:48.333Z,12.23
2019-05-05T09:41:53.603Z,11.63
2019-05-05T09:42:58.134Z,11.93
2019-05-05T09:44:04.290Z,9.57
2019-05-05T09:45:09.932Z,9.60
2019-05-05T09:46:14.498Z,10.20
2019-05-05T09:47:19.185Z,8.57
2019-05-05T09:48:24.241Z,10.27
2019-05-05T09:49:28.864Z,10.00
2019-05-05T09:50:34.145Z,12.90
2019-05-05T09:51:39.454Z,11.63
2019-05-05T09:52:44.418Z,12.87
2019-05-05T09:53:48.856Z,10.63
2019-05-05T09:54:54.454Z,14.23
2019-05-05T09:55:59.174Z,8.70
2019-05-05T09:57:04.479Z,9.10
2019-05-05T09:58:09.275Z,13.70
2019-05-05T09:59:13.726Z,10.87
2019-05-05T10:00:18.320Z,9.83
2019-05-05T10:01:24.545Z,11.90
2019-05-05T10:02:29.164Z,11.83
2019-05-05T10:03:34.111Z,19.87
2019-05-05T10:04:50.303Z,14.53
2019-05-05T10:05:54.740Z,13.73
2019-05-05T10:06:59.159Z,13.30
2019-05-05T10:08:03.679Z,13.03
2019-05-05T10:09:09.667Z,8.33
2019-05-05T10:10:26.953Z,10.97
2019-05-05T10:11:31.451Z,12.67
2019-05-05T10:12:35.939Z,10.30
2019-05-05T10:13:40.484Z,12.63
2019-05-05T10:14:45.029Z,14.00
2019-05-05T10:15:49.599Z,9.90
2019-05-05T10:16:54.170Z,19.30
2019-05-05T10:17:58.787Z,11.93
2019-05-05T10:19:04.510Z,13.17
2019-05-05T10:20:14.514Z,9.63
2019-05-05T10:21:19.006Z,11.57
2019-05-05T10:22:23.952Z,12.67
2019-05-05T10:23:30.251Z,12.90
2019-05-05T10:24:39.989Z,14.67
2019-05-05T10:25:49.476Z,14.07
2019-05-05T10:26:54.352Z,14.40
2019-05-05T10:27:58.908Z,12.43
2019-05-05T10:29:04.200Z,10.03
2019-05-05T10:30:10.964Z,13.80
2019-05-05T10:31:15.298Z,13.80
2019-05-05T10:32:19.616Z,13.57
2019-05-05T10:33:24.697Z,11.60
2019-05-05T10:34:29.392Z,11.77
2019-05-05T10:35:34.419Z,13.87
2019-05-05T10:36:39.155Z,13.10
2019-05-05T10:37:43.966Z,14.37
2019-05-05T10:38:53.804Z,12.27
2019-05-05T10:39:58.354Z,16.40
2019-05-05T10:41:04.263Z,12.67
2019-05-05T10:42:08.848Z,10.70
2019-05-05T10:43:14.796Z,15.70
2019-05-05T10:44:19.180Z,16.93
2019-05-05T10:45:24.559Z,12.40
2019-05-05T10:46:29.262Z,13.63
2019-05-05T10:47:33.603Z,14.17
2019-05-05T10:48:38.015Z,13.67
2019-05-05T10:49:44.197Z,13.00
2019-05-05T10:50:48.858Z,14.53
2019-05-05T10:51:54.301Z,13.57
2019-05-05T10:52:59.030Z,8.83
2019-05-05T10:54:04.050Z,12.33
2019-05-05T10:55:08.793Z,14.17
2019-05-05T10:56:13.689Z,12.43
2019-05-05T10:57:18.578Z,11.03
2019-05-05T10:58:24.393Z,8.27
2019-05-05T10:59:28.815Z,9.17
2019-05-05T11:00:44.681Z,10.03
2019-05-05T11:01:49.202Z,9.37
2019-05-05T11:02:53.606Z,15.23
2019-05-05T11:03:57.897Z,11.97
2019-05-05T11:05:04.060Z,13.23
2019-05-05T11:06:08.463Z,12.63
2019-05-05T11:07:14.621Z,12.93
2019-05-05T11:08:19.590Z,13.87
2019-05-05T11:09:24.495Z,11.03
2019-05-05T11:10:33.945Z,18.37
2019-05-05T11:11:38.496Z,18.47
2019-05-05T11:12:44.385Z,12.03
2019-05-05T11:13:48.853Z,16.87
2019-05-05T11:14:54.519Z,14.97
2019-05-05T11:15:58.996Z,10.97
2019-05-05T11:17:04.110Z,16.97
2019-05-05T11:18:08.877Z,14.57
2019-05-05T11:19:13.890Z,14.87
2019-05-05T11:20:18.363Z,14.20
2019-05-05T11:21:23.670Z,17.20
2019-05-05T11:22:28.216Z,11.37
2019-05-05T11:23:34.890Z,14.13
2019-05-05T11:24:39.195Z,16.67
2019-05-05T11:25:44.269Z,12.70
2019-05-05T11:26:50.452Z,14.70
2019-05-05T11:27:54.840Z,15.27
2019-05-05T11:28:59.175Z,15.23
2019-05-05T11:30:17.219Z,13.90
2019-05-05T11:31:21.560Z,12.30
2019-05-05T11:32:45.030Z,13.53
2019-05-05T11:34:08.523Z,10.13
2019-05-05T11:35:13.947Z,11.33
2019-05-05T11:36:36.495Z,13.67
2019-05-05T11:37:40.873Z,12.10
2019-05-05T11:38:45.530Z,14.00
2019-05-05T11:39:49.899Z,16.03
2019-05-05T11:40:54.763Z,14.57
2019-05-05T11:41:59.315Z,13.57
2019-05-05T11:43:03.871Z,14.07
2019-05-05T11:44:08.271Z,14.10
2019-05-05T11:45:14.888Z,15.27
2019-05-05T11:46:18.871Z,10.87
2019-05-05T11:47:24.515Z,18.30
2019-05-05T11:48:29.084Z,12.90
2019-05-05T11:49:33.763Z,14.40
2019-05-05T11:50:38.267Z,12.87
2019-05-05T11:51:43.721Z,20.37
2019-05-05T11:52:48.290Z,13.87
2019-05-05T11:53:54.002Z,13.13
2019-05-05T11:55:09.661Z,15.47
2019-05-05T11:56:04.869Z,11.53
2019-05-05T11:57:09.179Z,12.77
2019-05-05T11:58:14.377Z,15.07
2019-05-05T11:59:19.127Z,12.57
2019-05-05T12:00:24.142Z,13.97
2019-05-05T12:01:28.718Z,13.10
2019-05-05T12:02:33.524Z,10.13
2019-05-05T12:03:38.087Z,13.03
2019-05-05T12:04:42.580Z,12.20
2019-05-05T12:05:46.958Z,12.13
2019-05-05T12:06:51.277Z,12.20
2019-05-05T12:07:55.588Z,10.53
2019-05-05T12:09:01.721Z,9.23
2019-05-05T12:10:07.874Z,9.37
2019-05-05T12:11:15.064Z,14.73
2019-05-05T12:12:19.843Z,12.45
2019-05-05T12:13:24.175Z,11.53
2019-05-05T12:14:30.036Z,9.33
2019-05-05T12:15:34.411Z,10.35
2019-05-05T12:16:38.791Z,9.35
2019-05-05T12:17:45.442Z,11.63
2019-05-05T12:18:49.844Z,10.58
2019-05-05T12:19:54.310Z,11.05
2019-05-05T12:20:58.686Z,10.20
2019-05-05T12:22:03.163Z,7.95
2019-05-05T12:23:08.122Z,6.83
2019-05-05T12:24:18.556Z,11.00
2019-05-05T12:25:40.752Z,8.13
2019-05-05T12:26:55.915Z,10.50
2019-05-05T12:28:10.407Z,11.90
2019-05-05T12:29:19.088Z,8.78
2019-05-05T12:30:24.509Z,11.73
2019-05-05T12:31:29.749Z,10.30
2019-05-05T12:32:34.786Z,8.58
2019-05-05T12:33:39.263Z,8.50
2019-05-05T12:34:44.598Z,10.90
2019-05-05T12:35:49.122Z,10.40
2019-05-05T12:36:54.087Z,10.55
2019-05-05T12:37:58.516Z,9.50
2019-05-05T12:39:04.495Z,7.28
2019-05-05T12:40:14.333Z,10.53
2019-05-05T12:41:20.939Z,6.72
2019-05-05T12:42:25.072Z,8.60
2019-05-05T12:43:29.457Z,9.98
2019-05-05T12:44:38.652Z,9.38
2019-05-05T12:45:45.143Z,10.80
2019-05-05T12:47:09.931Z,12.47
2019-05-05T12:48:23.954Z,11.83
2019-05-05T12:49:27.855Z,11.38
2019-05-05T12:50:33.810Z,11.00
2019-05-05T12:51:38.316Z,10.85
2019-05-05T12:52:44.101Z,11.28
2019-05-05T12:53:48.652Z,12.10
2019-05-05T12:54:54.597Z,13.07
2019-05-05T12:55:59.326Z,11.87
2019-05-05T12:57:04.406Z,11.30
2019-05-05T12:58:08.952Z,11.07
2019-05-05T12:59:19.563Z,15.17
2019-05-05T13:00:24.328Z,12.57
2019-05-05T13:01:33.618Z,10.10
2019-05-05T13:02:38.508Z,12.03
2019-05-05T13:03:43.715Z,13.03
2019-05-05T13:04:48.605Z,13.20
2019-05-05T13:05:53.569Z,13.27
2019-05-05T13:06:58.031Z,12.50
2019-05-05T13:08:03.870Z,10.70
2019-05-05T13:09:09.472Z,10.03
2019-05-05T13:10:17.211Z,12.00
2019-05-05T13:11:23.641Z,11.60
2019-05-05T13:12:30.839Z,17.83
2019-05-05T13:13:35.175Z,13.77
2019-05-05T13:14:39.651Z,14.07
2019-05-05T13:15:44.370Z,10.50
2019-05-05T13:16:52.891Z,11.77
2019-05-05T13:17:55.064Z,9.63
2019-05-05T13:18:59.391Z,11.60
2019-05-05T13:20:14.616Z,11.70
2019-05-05T13:21:44.205Z,13.93
2019-05-05T13:23:04.190Z,11.70
2019-05-05T13:24:30.358Z,10.73
2019-05-05T13:25:55.967Z,11.93
2019-05-05T13:27:08.471Z,12.20
2019-05-05T13:28:09.395Z,11.97
2019-05-05T13:29:14.793Z,11.63
2019-05-05T13:30:19.492Z,8.97
2019-05-05T13:31:24.006Z,8.33
2019-05-05T13:32:28.380Z,8.67
2019-05-05T13:33:37.253Z,7.13
2019-05-05T13:34:43.832Z,9.80
2019-05-05T13:35:48.444Z,11.97
2019-05-05T13:36:57.417Z,8.67
2019-05-05T13:38:03.969Z,8.30
2019-05-05T13:39:09.645Z,13.50
2019-05-05T13:40:14.982Z,9.87
2019-05-05T13:41:19.527Z,13.03
2019-05-05T13:42:24.475Z,11.27
2019-05-05T13:43:28.936Z,7.10
2019-05-05T13:44:56.874Z,8.80
2019-05-05T13:46:06.863Z,12.03
2019-05-05T13:47:11.426Z,6.93
2019-05-05T13:48:15.729Z,7.07
2019-05-05T13:49:45.595Z,11.43
2019-05-05T13:50:53.879Z,8.33
2019-05-05T13:52:01.891Z,7.80
2019-05-05T13:53:06.491Z,8.75
2019-05-05T13:54:13.290Z,8.48
2019-05-05T13:55:17.369Z,8.20
2019-05-05T13:56:21.922Z,10.03
2019-05-05T13:57:26.411Z,9.45
2019-05-05T13:58:30.824Z,10.75
2019-05-05T13:59:35.224Z,6.47
2019-05-05T14:00:39.635Z,9.28
2019-05-05T14:01:44.911Z,8.58
2019-05-05T14:02:49.511Z,9.05
2019-05-05T14:03:54.214Z,7.00
2019-05-05T14:04:59.477Z,9.90
2019-05-05T14:06:04.714Z,7.10
2019-05-05T14:07:09.427Z,7.20
2019-05-05T14:08:14.691Z,8.43
2019-05-05T14:09:19.668Z,10.08
2019-05-05T14:10:25.337Z,11.78
2019-05-05T14:11:29.722Z,9.75
2019-05-05T14:12:34.566Z,7.87
2019-05-05T14:13:39.057Z,7.50
2019-05-05T14:14:44.050Z,9.58
2019-05-05T14:15:48.519Z,7.03
2019-05-05T14:16:53.772Z,7.45
2019-05-05T14:17:58.328Z,7.22
2019-05-05T14:19:04.388Z,5.85
2019-05-05T14:20:11.961Z,8.55
2019-05-05T14:21:15.273Z,8.05
2019-05-05T14:22:19.770Z,7.92
2019-05-05T14:23:24.407Z,10.98
2019-05-05T14:24:37.478Z,7.85
2019-05-05T14:25:43.958Z,6.42
2019-05-05T14:26:47.947Z,7.10
2019-05-05T14:27:54.122Z,5.75
2019-05-05T14:28:58.654Z,11.08
2019-05-05T14:30:21.095Z,9.45
2019-05-05T14:31:30.400Z,7.87
2019-05-05T14:32:36.528Z,5.95